sensor_id;sensor_type;location;lat;lon;timestamp;P1;durP1;ratioP1;P2;durP2;ratioP2
6300;SDS011;3183;51.010;6.898;2023-04-01T00:02:12;1.40;;;0.73;;
6300;SDS011;3183;51.010;6.898;2023-04-01T00:04:40;1.93;;;0.87;;
6300;SDS011;3183;51.010;6.898;2023-04-01T00:07:08;3.73;;;0.47;;
6300;SDS011;3183;51.010;6.898;2023-04-01T00:09:35;1.00;;;0.37;;
6300;SDS011;3183;51.010;6.898;2023-04-01T00:12:04;1.47;;;0.70;;
6300;SDS011;3183;51.010;6.898;2023-04-01T00:14:31;6.80;;;0.60;;
6300;SDS011;3183;51.010;6.898;2023-04-01T00:16:58;1.37;;;0.40;;
6300;SDS011;3183;51.010;6.898;2023-04-01T00:19:25;2.20;;;0.40;;
6300;SDS011;3183;51.010;6.898;2023-04-01T00:21:52;0.70;;;0.40;;
6300;SDS011;3183;51.010;6.898;2023-04-01T00:24:19;3.13;;;1.27;;
6300;SDS011;3183;51.010;6.898;2023-04-01T00:26:47;2.07;;;0.80;;
6300;SDS011;3183;51.010;6.898;2023-04-01T00:29:15;3.60;;;1.17;;
6300;SDS011;3183;51.010;6.898;2023-04-01T00:31:42;0.70;;;0.40;;
6300;SDS011;3183;51.010;6.898;2023-04-01T00:34:09;1.47;;;0.60;;
6300;SDS011;3183;51.010;6.898;2023-04-01T00:36:36;1.77;;;0.47;;
6300;SDS011;3183;51.010;6.898;2023-04-01T00:39:04;1.77;;;0.60;;
6300;SDS011;3183;51.010;6.898;2023-04-01T00:41:31;1.77;;;0.50;;
6300;SDS011;3183;51.010;6.898;2023-04-01T00:44:19;2.40;;;0.60;;
6300;SDS011;3183;51.010;6.898;2023-04-01T00:46:47;2.20;;;0.43;;
6300;SDS011;3183;51.010;6.898;2023-04-01T00:49:14;1.93;;;0.60;;
6300;SDS011;3183;51.010;6.898;2023-04-01T00:51:44;4.63;;;0.77;;
6300;SDS011;3183;51.010;6.898;2023-04-01T00:54:12;7.13;;;0.60;;
6300;SDS011;3183;51.010;6.898;2023-04-01T00:56:41;1.33;;;0.50;;
6300;SDS011;3183;51.010;6.898;2023-04-01T00:59:10;3.03;;;0.53;;
6300;SDS011;3183;51.010;6.898;2023-04-01T01:01:40;1.40;;;0.50;;
6300;SDS011;3183;51.010;6.898;2023-04-01T01:04:07;1.50;;;0.43;;
6300;SDS011;3183;51.010;6.898;2023-04-01T01:06:37;9.30;;;0.60;;
6300;SDS011;3183;51.010;6.898;2023-04-01T01:09:07;1.80;;;0.60;;
6300;SDS011;3183;51.010;6.898;2023-04-01T01:11:37;0.90;;;0.50;;
6300;SDS011;3183;51.010;6.898;2023-04-01T01:14:09;2.20;;;0.50;;
6300;SDS011;3183;51.010;6.898;2023-04-01T01:16:41;1.80;;;0.70;;
6300;SDS011;3183;51.010;6.898;2023-04-01T01:19:14;0.80;;;0.40;;
6300;SDS011;3183;51.010;6.898;2023-04-01T01:21:49;1.77;;;0.50;;
6300;SDS011;3183;51.010;6.898;2023-04-01T01:24:30;2.23;;;0.67;;
6300;SDS011;3183;51.010;6.898;2023-04-01T01:27:03;0.67;;;0.30;;
6300;SDS011;3183;51.010;6.898;2023-04-01T01:29:35;1.73;;;0.50;;
6300;SDS011;3183;51.010;6.898;2023-04-01T01:32:08;1.93;;;0.40;;
6300;SDS011;3183;51.010;6.898;2023-04-01T01:34:39;0.70;;;0.33;;
6300;SDS011;3183;51.010;6.898;2023-04-01T01:37:09;2.83;;;0.60;;
6300;SDS011;3183;51.010;6.898;2023-04-01T01:39:37;2.53;;;0.67;;
6300;SDS011;3183;51.010;6.898;2023-04-01T01:42:06;3.47;;;0.40;;
6300;SDS011;3183;51.010;6.898;2023-04-01T01:44:34;1.73;;;0.60;;
6300;SDS011;3183;51.010;6.898;2023-04-01T01:47:02;1.63;;;0.77;;
6300;SDS011;3183;51.010;6.898;2023-04-01T01:49:30;0.70;;;0.37;;
6300;SDS011;3183;51.010;6.898;2023-04-01T01:51:58;3.53;;;0.60;;
6300;SDS011;3183;51.010;6.898;2023-04-01T01:54:27;0.70;;;0.40;;
6300;SDS011;3183;51.010;6.898;2023-04-01T01:56:55;1.43;;;0.57;;
6300;SDS011;3183;51.010;6.898;2023-04-01T01:59:24;0.70;;;0.30;;
6300;SDS011;3183;51.010;6.898;2023-04-01T02:01:51;2.00;;;0.40;;
6300;SDS011;3183;51.010;6.898;2023-04-01T02:04:19;2.30;;;0.53;;
6300;SDS011;3183;51.010;6.898;2023-04-01T02:06:50;3.70;;;0.40;;
6300;SDS011;3183;51.010;6.898;2023-04-01T02:09:20;1.47;;;0.60;;
6300;SDS011;3183;51.010;6.898;2023-04-01T02:11:48;0.80;;;0.40;;
6300;SDS011;3183;51.010;6.898;2023-04-01T02:14:17;1.87;;;0.50;;
6300;SDS011;3183;51.010;6.898;2023-04-01T02:16:47;1.23;;;0.37;;
6300;SDS011;3183;51.010;6.898;2023-04-01T02:19:16;1.50;;;0.60;;
6300;SDS011;3183;51.010;6.898;2023-04-01T02:21:47;1.00;;;0.47;;
6300;SDS011;3183;51.010;6.898;2023-04-01T02:24:17;0.80;;;0.30;;
6300;SDS011;3183;51.010;6.898;2023-04-01T02:26:46;0.70;;;0.40;;
6300;SDS011;3183;51.010;6.898;2023-04-01T02:29:14;0.93;;;0.50;;
6300;SDS011;3183;51.010;6.898;2023-04-01T02:31:42;2.30;;;0.40;;
6300;SDS011;3183;51.010;6.898;2023-04-01T02:34:09;1.17;;;0.30;;
6300;SDS011;3183;51.010;6.898;2023-04-01T02:36:37;1.70;;;0.40;;
6300;SDS011;3183;51.010;6.898;2023-04-01T02:39:04;3.33;;;0.67;;
6300;SDS011;3183;51.010;6.898;2023-04-01T02:41:32;7.80;;;0.60;;
6300;SDS011;3183;51.010;6.898;2023-04-01T02:44:05;3.73;;;0.57;;
6300;SDS011;3183;51.010;6.898;2023-04-01T02:46:35;0.60;;;0.30;;
6300;SDS011;3183;51.010;6.898;2023-04-01T02:49:02;0.90;;;0.50;;
6300;SDS011;3183;51.010;6.898;2023-04-01T02:51:29;1.50;;;0.63;;
6300;SDS011;3183;51.010;6.898;2023-04-01T02:53:56;2.17;;;0.40;;
6300;SDS011;3183;51.010;6.898;2023-04-01T02:56:24;0.60;;;0.30;;
6300;SDS011;3183;51.010;6.898;2023-04-01T02:58:52;0.70;;;0.40;;
6300;SDS011;3183;51.010;6.898;2023-04-01T03:01:19;0.80;;;0.30;;
6300;SDS011;3183;51.010;6.898;2023-04-01T03:03:47;1.43;;;0.33;;
6300;SDS011;3183;51.010;6.898;2023-04-01T03:06:15;0.60;;;0.30;;
6300;SDS011;3183;51.010;6.898;2023-04-01T03:08:43;0.60;;;0.30;;
6300;SDS011;3183;51.010;6.898;2023-04-01T03:11:10;3.90;;;0.97;;
6300;SDS011;3183;51.010;6.898;2023-04-01T03:13:37;1.53;;;0.40;;
6300;SDS011;3183;51.010;6.898;2023-04-01T03:16:04;4.40;;;0.70;;
6300;SDS011;3183;51.010;6.898;2023-04-01T03:18:32;1.57;;;0.50;;
6300;SDS011;3183;51.010;6.898;2023-04-01T03:21:12;3.03;;;0.50;;
6300;SDS011;3183;51.010;6.898;2023-04-01T03:23:40;0.70;;;0.40;;
6300;SDS011;3183;51.010;6.898;2023-04-01T03:26:07;0.97;;;0.47;;
6300;SDS011;3183;51.010;6.898;2023-04-01T03:28:35;1.00;;;0.37;;
6300;SDS011;3183;51.010;6.898;2023-04-01T03:31:02;4.17;;;0.47;;
6300;SDS011;3183;51.010;6.898;2023-04-01T03:33:30;2.60;;;0.50;;
6300;SDS011;3183;51.010;6.898;2023-04-01T03:35:57;0.70;;;0.30;;
6300;SDS011;3183;51.010;6.898;2023-04-01T03:38:26;1.07;;;0.60;;
6300;SDS011;3183;51.010;6.898;2023-04-01T03:40:53;1.27;;;0.40;;
6300;SDS011;3183;51.010;6.898;2023-04-01T03:43:20;1.10;;;0.30;;
6300;SDS011;3183;51.010;6.898;2023-04-01T03:45:48;0.70;;;0.40;;
6300;SDS011;3183;51.010;6.898;2023-04-01T03:48:15;0.90;;;0.37;;
6300;SDS011;3183;51.010;6.898;2023-04-01T03:50:42;0.70;;;0.30;;
6300;SDS011;3183;51.010;6.898;2023-04-01T03:53:10;1.33;;;0.40;;
6300;SDS011;3183;51.010;6.898;2023-04-01T03:55:38;0.80;;;0.40;;
6300;SDS011;3183;51.010;6.898;2023-04-01T03:58:06;0.67;;;0.30;;
6300;SDS011;3183;51.010;6.898;2023-04-01T04:00:33;1.10;;;0.30;;
6300;SDS011;3183;51.010;6.898;2023-04-01T04:03:00;0.87;;;0.47;;
6300;SDS011;3183;51.010;6.898;2023-04-01T04:05:27;1.20;;;0.33;;
6300;SDS011;3183;51.010;6.898;2023-04-01T04:07:55;0.90;;;0.50;;
6300;SDS011;3183;51.010;6.898;2023-04-01T04:10:22;1.00;;;0.40;;
6300;SDS011;3183;51.010;6.898;2023-04-01T04:12:51;2.13;;;0.43;;
6300;SDS011;3183;51.010;6.898;2023-04-01T04:15:18;2.17;;;0.50;;
6300;SDS011;3183;51.010;6.898;2023-04-01T04:17:45;0.60;;;0.20;;
6300;SDS011;3183;51.010;6.898;2023-04-01T04:20:13;0.80;;;0.50;;
6300;SDS011;3183;51.010;6.898;2023-04-01T04:22:40;1.47;;;0.40;;
6300;SDS011;3183;51.010;6.898;2023-04-01T04:25:07;1.13;;;0.20;;
6300;SDS011;3183;51.010;6.898;2023-04-01T04:27:35;1.50;;;0.33;;
6300;SDS011;3183;51.010;6.898;2023-04-01T04:30:04;2.60;;;0.53;;
6300;SDS011;3183;51.010;6.898;2023-04-01T04:32:31;1.10;;;0.60;;
6300;SDS011;3183;51.010;6.898;2023-04-01T04:34:59;0.70;;;0.50;;
6300;SDS011;3183;51.010;6.898;2023-04-01T04:37:26;2.90;;;0.40;;
6300;SDS011;3183;51.010;6.898;2023-04-01T04:39:53;2.57;;;0.70;;
6300;SDS011;3183;51.010;6.898;2023-04-01T04:42:20;0.80;;;0.50;;
6300;SDS011;3183;51.010;6.898;2023-04-01T04:44:47;2.87;;;0.50;;
6300;SDS011;3183;51.010;6.898;2023-04-01T04:47:16;4.60;;;0.60;;
6300;SDS011;3183;51.010;6.898;2023-04-01T04:49:43;2.67;;;0.60;;
6300;SDS011;3183;51.010;6.898;2023-04-01T04:52:10;5.03;;;0.40;;
6300;SDS011;3183;51.010;6.898;2023-04-01T04:54:37;0.70;;;0.40;;
6300;SDS011;3183;51.010;6.898;2023-04-01T04:57:04;1.20;;;0.60;;
6300;SDS011;3183;51.010;6.898;2023-04-01T04:59:32;1.53;;;0.40;;
6300;SDS011;3183;51.010;6.898;2023-04-01T05:01:59;0.70;;;0.40;;
6300;SDS011;3183;51.010;6.898;2023-04-01T05:04:27;0.70;;;0.40;;
6300;SDS011;3183;51.010;6.898;2023-04-01T05:06:54;1.10;;;0.50;;
6300;SDS011;3183;51.010;6.898;2023-04-01T05:09:21;0.70;;;0.40;;
6300;SDS011;3183;51.010;6.898;2023-04-01T05:11:49;2.20;;;0.53;;
6300;SDS011;3183;51.010;6.898;2023-04-01T05:14:16;1.20;;;0.50;;
6300;SDS011;3183;51.010;6.898;2023-04-01T05:16:43;0.70;;;0.40;;
6300;SDS011;3183;51.010;6.898;2023-04-01T05:19:10;0.70;;;0.50;;
6300;SDS011;3183;51.010;6.898;2023-04-01T05:21:39;1.17;;;0.70;;
6300;SDS011;3183;51.010;6.898;2023-04-01T05:24:07;0.90;;;0.40;;
6300;SDS011;3183;51.010;6.898;2023-04-01T05:26:35;0.90;;;0.50;;
6300;SDS011;3183;51.010;6.898;2023-04-01T05:29:02;1.93;;;1.10;;
6300;SDS011;3183;51.010;6.898;2023-04-01T05:31:30;1.90;;;0.63;;
6300;SDS011;3183;51.010;6.898;2023-04-01T05:33:57;1.77;;;0.80;;
6300;SDS011;3183;51.010;6.898;2023-04-01T05:36:24;2.30;;;0.77;;
6300;SDS011;3183;51.010;6.898;2023-04-01T05:38:55;2.50;;;0.70;;
6300;SDS011;3183;51.010;6.898;2023-04-01T05:41:22;5.73;;;0.60;;
6300;SDS011;3183;51.010;6.898;2023-04-01T05:43:49;0.70;;;0.50;;
6300;SDS011;3183;51.010;6.898;2023-04-01T05:46:16;1.67;;;0.60;;
6300;SDS011;3183;51.010;6.898;2023-04-01T05:48:44;0.80;;;0.50;;
6300;SDS011;3183;51.010;6.898;2023-04-01T05:51:12;1.30;;;0.70;;
6300;SDS011;3183;51.010;6.898;2023-04-01T05:53:39;1.37;;;0.70;;
6300;SDS011;3183;51.010;6.898;2023-04-01T05:56:08;1.30;;;0.80;;
6300;SDS011;3183;51.010;6.898;2023-04-01T05:58:35;1.50;;;0.70;;
6300;SDS011;3183;51.010;6.898;2023-04-01T06:01:02;0.80;;;0.60;;
6300;SDS011;3183;51.010;6.898;2023-04-01T06:03:30;2.13;;;0.80;;
6300;SDS011;3183;51.010;6.898;2023-04-01T06:05:57;2.50;;;0.77;;
6300;SDS011;3183;51.010;6.898;2023-04-01T06:08:26;2.10;;;0.57;;
6300;SDS011;3183;51.010;6.898;2023-04-01T06:10:55;0.90;;;0.70;;
6300;SDS011;3183;51.010;6.898;2023-04-01T06:13:30;1.13;;;0.90;;
6300;SDS011;3183;51.010;6.898;2023-04-01T06:16:04;0.90;;;0.77;;
6300;SDS011;3183;51.010;6.898;2023-04-01T06:18:40;0.80;;;0.70;;
6300;SDS011;3183;51.010;6.898;2023-04-01T06:21:12;1.17;;;0.90;;
6300;SDS011;3183;51.010;6.898;2023-04-01T06:23:49;2.60;;;0.80;;
6300;SDS011;3183;51.010;6.898;2023-04-01T06:26:24;0.80;;;0.80;;
6300;SDS011;3183;51.010;6.898;2023-04-01T06:31:41;4.53;;;1.07;;
6300;SDS011;3183;51.010;6.898;2023-04-01T06:34:18;4.03;;;0.70;;
6300;SDS011;3183;51.010;6.898;2023-04-01T06:36:51;1.20;;;0.80;;
6300;SDS011;3183;51.010;6.898;2023-04-01T06:39:24;2.50;;;0.90;;
6300;SDS011;3183;51.010;6.898;2023-04-01T06:41:56;0.70;;;0.57;;
6300;SDS011;3183;51.010;6.898;2023-04-01T06:44:29;1.57;;;0.80;;
6300;SDS011;3183;51.010;6.898;2023-04-01T06:47:04;1.00;;;0.90;;
6300;SDS011;3183;51.010;6.898;2023-04-01T06:49:39;1.17;;;0.70;;
6300;SDS011;3183;51.010;6.898;2023-04-01T06:52:10;1.57;;;0.70;;
6300;SDS011;3183;51.010;6.898;2023-04-01T06:54:42;1.20;;;1.00;;
6300;SDS011;3183;51.010;6.898;2023-04-01T06:57:16;4.90;;;1.33;;
6300;SDS011;3183;51.010;6.898;2023-04-01T06:59:46;1.47;;;1.07;;
6300;SDS011;3183;51.010;6.898;2023-04-01T07:02:18;3.03;;;0.90;;
6300;SDS011;3183;51.010;6.898;2023-04-01T07:04:46;1.27;;;0.90;;
6300;SDS011;3183;51.010;6.898;2023-04-01T07:07:16;2.93;;;1.47;;
6300;SDS011;3183;51.010;6.898;2023-04-01T07:09:47;3.03;;;0.90;;
6300;SDS011;3183;51.010;6.898;2023-04-01T07:12:18;2.90;;;1.03;;
6300;SDS011;3183;51.010;6.898;2023-04-01T07:14:48;1.10;;;0.87;;
6300;SDS011;3183;51.010;6.898;2023-04-01T07:17:17;1.53;;;1.10;;
6300;SDS011;3183;51.010;6.898;2023-04-01T07:19:47;4.60;;;1.40;;
6300;SDS011;3183;51.010;6.898;2023-04-01T07:22:18;2.00;;;1.30;;
6300;SDS011;3183;51.010;6.898;2023-04-01T07:24:48;1.67;;;1.43;;
6300;SDS011;3183;51.010;6.898;2023-04-01T07:27:15;1.63;;;1.40;;
6300;SDS011;3183;51.010;6.898;2023-04-01T07:29:42;7.90;;;1.77;;
6300;SDS011;3183;51.010;6.898;2023-04-01T07:32:13;1.50;;;1.10;;
6300;SDS011;3183;51.010;6.898;2023-04-01T07:34:47;1.83;;;1.40;;
6300;SDS011;3183;51.010;6.898;2023-04-01T07:37:18;2.30;;;1.93;;
6300;SDS011;3183;51.010;6.898;2023-04-01T07:39:49;1.90;;;1.70;;
6300;SDS011;3183;51.010;6.898;2023-04-01T07:42:22;10.13;;;2.23;;
6300;SDS011;3183;51.010;6.898;2023-04-01T07:44:53;1.70;;;1.60;;
6300;SDS011;3183;51.010;6.898;2023-04-01T07:47:25;4.27;;;1.90;;
6300;SDS011;3183;51.010;6.898;2023-04-01T07:50:01;1.60;;;1.33;;
6300;SDS011;3183;51.010;6.898;2023-04-01T07:52:30;2.90;;;2.07;;
6300;SDS011;3183;51.010;6.898;2023-04-01T07:55:01;6.40;;;1.57;;
6300;SDS011;3183;51.010;6.898;2023-04-01T07:57:30;1.90;;;1.53;;
6300;SDS011;3183;51.010;6.898;2023-04-01T08:00:02;1.60;;;1.50;;
6300;SDS011;3183;51.010;6.898;2023-04-01T08:02:36;1.40;;;1.30;;
6300;SDS011;3183;51.010;6.898;2023-04-01T08:05:09;1.90;;;1.30;;
6300;SDS011;3183;51.010;6.898;2023-04-01T08:07:43;1.83;;;1.17;;
6300;SDS011;3183;51.010;6.898;2023-04-01T08:10:13;4.20;;;1.50;;
6300;SDS011;3183;51.010;6.898;2023-04-01T08:12:46;1.47;;;1.27;;
6300;SDS011;3183;51.010;6.898;2023-04-01T08:15:16;2.23;;;1.37;;
6300;SDS011;3183;51.010;6.898;2023-04-01T08:17:49;3.67;;;1.40;;
6300;SDS011;3183;51.010;6.898;2023-04-01T08:20:27;2.53;;;1.37;;
6300;SDS011;3183;51.010;6.898;2023-04-01T08:22:57;4.10;;;1.10;;
6300;SDS011;3183;51.010;6.898;2023-04-01T08:25:27;5.20;;;1.33;;
6300;SDS011;3183;51.010;6.898;2023-04-01T08:27:55;1.83;;;0.97;;
6300;SDS011;3183;51.010;6.898;2023-04-01T08:30:25;1.70;;;1.40;;
6300;SDS011;3183;51.010;6.898;2023-04-01T08:32:53;0.90;;;0.80;;
6300;SDS011;3183;51.010;6.898;2023-04-01T08:35:25;1.33;;;0.93;;
6300;SDS011;3183;51.010;6.898;2023-04-01T08:37:55;2.10;;;1.20;;
6300;SDS011;3183;51.010;6.898;2023-04-01T08:40:32;7.70;;;1.43;;
6300;SDS011;3183;51.010;6.898;2023-04-01T08:43:07;1.00;;;0.90;;
6300;SDS011;3183;51.010;6.898;2023-04-01T08:45:44;3.20;;;1.00;;
6300;SDS011;3183;51.010;6.898;2023-04-01T08:48:21;1.43;;;0.97;;
6300;SDS011;3183;51.010;6.898;2023-04-01T08:51:00;1.07;;;0.97;;
6300;SDS011;3183;51.010;6.898;2023-04-01T08:53:36;0.90;;;0.73;;
6300;SDS011;3183;51.010;6.898;2023-04-01T08:56:06;0.83;;;0.83;;
6300;SDS011;3183;51.010;6.898;2023-04-01T08:58:44;1.30;;;0.93;;
6300;SDS011;3183;51.010;6.898;2023-04-01T09:01:14;1.60;;;0.90;;
6300;SDS011;3183;51.010;6.898;2023-04-01T09:03:57;2.30;;;1.03;;
6300;SDS011;3183;51.010;6.898;2023-04-01T09:06:47;2.50;;;1.10;;
6300;SDS011;3183;51.010;6.898;2023-04-01T09:09:23;1.50;;;0.90;;
6300;SDS011;3183;51.010;6.898;2023-04-01T09:14:48;1.17;;;1.00;;
6300;SDS011;3183;51.010;6.898;2023-04-01T09:17:28;2.23;;;1.13;;
6300;SDS011;3183;51.010;6.898;2023-04-01T09:20:06;2.87;;;1.13;;
6300;SDS011;3183;51.010;6.898;2023-04-01T09:22:44;2.90;;;1.00;;
6300;SDS011;3183;51.010;6.898;2023-04-01T09:25:28;4.67;;;2.40;;
6300;SDS011;3183;51.010;6.898;2023-04-01T09:27:58;2.97;;;1.27;;
6300;SDS011;3183;51.010;6.898;2023-04-01T09:30:38;3.07;;;1.90;;
6300;SDS011;3183;51.010;6.898;2023-04-01T09:33:17;2.33;;;1.60;;
6300;SDS011;3183;51.010;6.898;2023-04-01T09:35:55;4.93;;;2.27;;
6300;SDS011;3183;51.010;6.898;2023-04-01T09:38:29;3.87;;;2.17;;
6300;SDS011;3183;51.010;6.898;2023-04-01T09:41:00;2.67;;;2.30;;
6300;SDS011;3183;51.010;6.898;2023-04-01T09:43:35;11.23;;;6.67;;
6300;SDS011;3183;51.010;6.898;2023-04-01T09:46:11;2.67;;;2.47;;
6300;SDS011;3183;51.010;6.898;2023-04-01T09:48:44;2.30;;;2.00;;
6300;SDS011;3183;51.010;6.898;2023-04-01T09:51:18;2.87;;;1.80;;
6300;SDS011;3183;51.010;6.898;2023-04-01T09:53:54;3.53;;;2.00;;
6300;SDS011;3183;51.010;6.898;2023-04-01T09:56:32;1.73;;;1.63;;
6300;SDS011;3183;51.010;6.898;2023-04-01T10:01:57;1.60;;;1.50;;
6300;SDS011;3183;51.010;6.898;2023-04-01T10:04:39;2.03;;;1.40;;
6300;SDS011;3183;51.010;6.898;2023-04-01T10:07:18;1.67;;;1.40;;
6300;SDS011;3183;51.010;6.898;2023-04-01T10:12:59;3.30;;;1.80;;
6300;SDS011;3183;51.010;6.898;2023-04-01T10:15:44;1.33;;;1.23;;
6300;SDS011;3183;51.010;6.898;2023-04-01T10:21:24;1.40;;;1.30;;
6300;SDS011;3183;51.010;6.898;2023-04-01T10:24:00;1.33;;;1.23;;
6300;SDS011;3183;51.010;6.898;2023-04-01T10:32:18;1.33;;;1.23;;
6300;SDS011;3183;51.010;6.898;2023-04-01T10:37:59;2.10;;;1.60;;
6300;SDS011;3183;51.010;6.898;2023-04-01T10:40:35;1.83;;;1.60;;
6300;SDS011;3183;51.010;6.898;2023-04-01T10:43:10;1.80;;;1.70;;
6300;SDS011;3183;51.010;6.898;2023-04-01T10:45:53;2.60;;;1.97;;
6300;SDS011;3183;51.010;6.898;2023-04-01T10:48:39;2.13;;;1.93;;
6300;SDS011;3183;51.010;6.898;2023-04-01T10:51:12;2.70;;;2.10;;
6300;SDS011;3183;51.010;6.898;2023-04-01T11:24:08;2.13;;;1.93;;
6300;SDS011;3183;51.010;6.898;2023-04-01T11:26:43;2.80;;;1.80;;
6300;SDS011;3183;51.010;6.898;2023-04-01T11:32:02;2.47;;;2.03;;
6300;SDS011;3183;51.010;6.898;2023-04-01T11:34:44;2.20;;;2.00;;
6300;SDS011;3183;51.010;6.898;2023-04-01T11:37:17;2.40;;;1.93;;
6300;SDS011;3183;51.010;6.898;2023-04-01T11:39:50;1.57;;;1.17;;
6300;SDS011;3183;51.010;6.898;2023-04-01T11:42:24;1.57;;;1.47;;
6300;SDS011;3183;51.010;6.898;2023-04-01T11:44:58;1.50;;;1.40;;
6300;SDS011;3183;51.010;6.898;2023-04-01T11:47:41;1.73;;;1.20;;
6300;SDS011;3183;51.010;6.898;2023-04-01T11:50:15;3.97;;;1.95;;
6300;SDS011;3183;51.010;6.898;2023-04-01T11:52:57;3.60;;;2.73;;
6300;SDS011;3183;51.010;6.898;2023-04-01T11:55:30;1.60;;;1.50;;
6300;SDS011;3183;51.010;6.898;2023-04-01T11:58:11;2.70;;;1.90;;
6300;SDS011;3183;51.010;6.898;2023-04-01T12:00:44;3.87;;;2.20;;
6300;SDS011;3183;51.010;6.898;2023-04-01T12:03:21;4.67;;;2.00;;
6300;SDS011;3183;51.010;6.898;2023-04-01T12:05:54;2.53;;;1.80;;
6300;SDS011;3183;51.010;6.898;2023-04-01T12:08:28;3.63;;;1.97;;
6300;SDS011;3183;51.010;6.898;2023-04-01T12:10:59;1.93;;;1.40;;
6300;SDS011;3183;51.010;6.898;2023-04-01T12:13:30;1.40;;;1.30;;
6300;SDS011;3183;51.010;6.898;2023-04-01T12:16:04;1.53;;;1.43;;
6300;SDS011;3183;51.010;6.898;2023-04-01T12:18:34;1.73;;;1.40;;
6300;SDS011;3183;51.010;6.898;2023-04-01T12:21:05;1.70;;;1.60;;
6300;SDS011;3183;51.010;6.898;2023-04-01T12:23:41;1.80;;;1.53;;
6300;SDS011;3183;51.010;6.898;2023-04-01T12:26:18;4.27;;;1.27;;
6300;SDS011;3183;51.010;6.898;2023-04-01T12:28:49;1.47;;;1.37;;
6300;SDS011;3183;51.010;6.898;2023-04-01T12:31:25;1.40;;;1.30;;
6300;SDS011;3183;51.010;6.898;2023-04-01T12:34:04;1.80;;;1.60;;
6300;SDS011;3183;51.010;6.898;2023-04-01T12:36:40;1.77;;;1.63;;
6300;SDS011;3183;51.010;6.898;2023-04-01T12:39:29;3.00;;;1.80;;
6300;SDS011;3183;51.010;6.898;2023-04-01T12:42:03;1.33;;;1.23;;
6300;SDS011;3183;51.010;6.898;2023-04-01T12:44:43;1.50;;;1.27;;
6300;SDS011;3183;51.010;6.898;2023-04-01T12:47:29;1.50;;;1.40;;
6300;SDS011;3183;51.010;6.898;2023-04-01T12:50:05;2.57;;;1.10;;
6300;SDS011;3183;51.010;6.898;2023-04-01T12:52:38;2.13;;;1.43;;
6300;SDS011;3183;51.010;6.898;2023-04-01T12:55:15;2.23;;;1.53;;
6300;SDS011;3183;51.010;6.898;2023-04-01T12:57:51;2.30;;;2.10;;
6300;SDS011;3183;51.010;6.898;2023-04-01T13:00:25;4.77;;;1.60;;
6300;SDS011;3183;51.010;6.898;2023-04-01T13:02:58;2.97;;;1.80;;
6300;SDS011;3183;51.010;6.898;2023-04-01T13:05:37;3.60;;;1.87;;
6300;SDS011;3183;51.010;6.898;2023-04-01T13:08:09;2.00;;;1.80;;
6300;SDS011;3183;51.010;6.898;2023-04-01T13:10:44;1.97;;;1.73;;
6300;SDS011;3183;51.010;6.898;2023-04-01T13:16:02;1.60;;;1.50;;
6300;SDS011;3183;51.010;6.898;2023-04-01T13:18:33;1.53;;;1.43;;
6300;SDS011;3183;51.010;6.898;2023-04-01T13:21:05;1.70;;;1.60;;
6300;SDS011;3183;51.010;6.898;2023-04-01T13:23:39;5.27;;;3.60;;
6300;SDS011;3183;51.010;6.898;2023-04-01T13:26:12;4.43;;;3.27;;
6300;SDS011;3183;51.010;6.898;2023-04-01T13:28:40;6.10;;;4.20;;
6300;SDS011;3183;51.010;6.898;2023-04-01T13:31:12;2.87;;;2.50;;
6300;SDS011;3183;51.010;6.898;2023-04-01T13:33:44;5.77;;;4.43;;
6300;SDS011;3183;51.010;6.898;2023-04-01T13:36:17;4.60;;;3.10;;
6300;SDS011;3183;51.010;6.898;2023-04-01T13:38:59;2.97;;;2.33;;
6300;SDS011;3183;51.010;6.898;2023-04-01T13:41:32;3.93;;;2.80;;
6300;SDS011;3183;51.010;6.898;2023-04-01T13:44:06;2.60;;;2.40;;
6300;SDS011;3183;51.010;6.898;2023-04-01T13:46:43;5.03;;;2.50;;
6300;SDS011;3183;51.010;6.898;2023-04-01T13:54:55;4.20;;;3.30;;
6300;SDS011;3183;51.010;6.898;2023-04-01T13:57:33;3.90;;;2.63;;
6300;SDS011;3183;51.010;6.898;2023-04-01T14:00:06;4.53;;;2.50;;
6300;SDS011;3183;51.010;6.898;2023-04-01T14:02:51;5.10;;;2.33;;
6300;SDS011;3183;51.010;6.898;2023-04-01T14:05:28;2.60;;;2.30;;
6300;SDS011;3183;51.010;6.898;2023-04-01T14:07:59;2.83;;;2.50;;
6300;SDS011;3183;51.010;6.898;2023-04-01T14:10:31;2.87;;;2.13;;
6300;SDS011;3183;51.010;6.898;2023-04-01T14:13:02;3.03;;;2.63;;
6300;SDS011;3183;51.010;6.898;2023-04-01T14:15:38;3.07;;;2.77;;
6300;SDS011;3183;51.010;6.898;2023-04-01T14:18:13;3.10;;;2.70;;
6300;SDS011;3183;51.010;6.898;2023-04-01T14:20:44;4.00;;;2.60;;
6300;SDS011;3183;51.010;6.898;2023-04-01T14:23:24;3.00;;;2.70;;
6300;SDS011;3183;51.010;6.898;2023-04-01T14:28:41;4.57;;;3.20;;
6300;SDS011;3183;51.010;6.898;2023-04-01T14:31:17;6.97;;;3.10;;
6300;SDS011;3183;51.010;6.898;2023-04-01T14:33:50;10.93;;;2.70;;
6300;SDS011;3183;51.010;6.898;2023-04-01T14:36:30;4.60;;;3.67;;
6300;SDS011;3183;51.010;6.898;2023-04-01T14:39:06;4.53;;;3.33;;
6300;SDS011;3183;51.010;6.898;2023-04-01T14:41:38;4.30;;;3.37;;
6300;SDS011;3183;51.010;6.898;2023-04-01T14:44:22;6.20;;;4.17;;
6300;SDS011;3183;51.010;6.898;2023-04-01T14:47:03;4.53;;;3.33;;
6300;SDS011;3183;51.010;6.898;2023-04-01T14:49:35;5.90;;;3.20;;
6300;SDS011;3183;51.010;6.898;2023-04-01T14:52:10;4.10;;;3.70;;
6300;SDS011;3183;51.010;6.898;2023-04-01T14:54:38;4.53;;;3.50;;
6300;SDS011;3183;51.010;6.898;2023-04-01T14:57:10;2.47;;;2.27;;
6300;SDS011;3183;51.010;6.898;2023-04-01T14:59:39;6.73;;;2.83;;
6300;SDS011;3183;51.010;6.898;2023-04-01T15:02:09;4.40;;;3.23;;
6300;SDS011;3183;51.010;6.898;2023-04-01T15:04:46;6.97;;;4.47;;
6300;SDS011;3183;51.010;6.898;2023-04-01T15:07:19;4.30;;;3.23;;
6300;SDS011;3183;51.010;6.898;2023-04-01T15:09:49;9.50;;;3.70;;
6300;SDS011;3183;51.010;6.898;2023-04-01T15:12:22;5.87;;;4.53;;
6300;SDS011;3183;51.010;6.898;2023-04-01T15:14:56;4.37;;;3.40;;
6300;SDS011;3183;51.010;6.898;2023-04-01T15:17:35;5.97;;;3.67;;
6300;SDS011;3183;51.010;6.898;2023-04-01T15:20:13;3.90;;;3.33;;
6300;SDS011;3183;51.010;6.898;2023-04-01T15:22:49;7.90;;;3.53;;
6300;SDS011;3183;51.010;6.898;2023-04-01T15:25:21;3.80;;;3.40;;
6300;SDS011;3183;51.010;6.898;2023-04-01T15:27:55;5.47;;;3.83;;
6300;SDS011;3183;51.010;6.898;2023-04-01T15:30:30;6.70;;;4.33;;
6300;SDS011;3183;51.010;6.898;2023-04-01T15:33:03;3.40;;;2.90;;
6300;SDS011;3183;51.010;6.898;2023-04-01T15:35:38;16.53;;;3.60;;
6300;SDS011;3183;51.010;6.898;2023-04-01T15:38:08;5.73;;;3.40;;
6300;SDS011;3183;51.010;6.898;2023-04-01T15:40:38;4.10;;;3.17;;
6300;SDS011;3183;51.010;6.898;2023-04-01T15:43:12;5.57;;;3.93;;
6300;SDS011;3183;51.010;6.898;2023-04-01T15:45:46;3.83;;;3.30;;
6300;SDS011;3183;51.010;6.898;2023-04-01T15:51:02;6.20;;;4.30;;
6300;SDS011;3183;51.010;6.898;2023-04-01T15:56:25;7.67;;;4.67;;
6300;SDS011;3183;51.010;6.898;2023-04-01T15:58:59;5.40;;;3.90;;
6300;SDS011;3183;51.010;6.898;2023-04-01T16:01:32;5.70;;;3.67;;
6300;SDS011;3183;51.010;6.898;2023-04-01T16:04:06;3.90;;;3.30;;
6300;SDS011;3183;51.010;6.898;2023-04-01T16:06:45;5.57;;;3.93;;
6300;SDS011;3183;51.010;6.898;2023-04-01T16:09:23;5.47;;;4.00;;
6300;SDS011;3183;51.010;6.898;2023-04-01T16:11:57;4.40;;;3.10;;
6300;SDS011;3183;51.010;6.898;2023-04-01T16:14:28;3.90;;;3.17;;
6300;SDS011;3183;51.010;6.898;2023-04-01T16:17:01;5.50;;;3.67;;
6300;SDS011;3183;51.010;6.898;2023-04-01T16:19:38;3.80;;;3.20;;
6300;SDS011;3183;51.010;6.898;2023-04-01T16:22:09;5.00;;;3.20;;
6300;SDS011;3183;51.010;6.898;2023-04-01T16:24:41;4.70;;;3.30;;
6300;SDS011;3183;51.010;6.898;2023-04-01T16:27:12;5.00;;;3.97;;
6300;SDS011;3183;51.010;6.898;2023-04-01T16:29:43;4.07;;;3.03;;
6300;SDS011;3183;51.010;6.898;2023-04-01T16:32:18;4.00;;;2.93;;
6300;SDS011;3183;51.010;6.898;2023-04-01T16:34:54;3.80;;;3.00;;
6300;SDS011;3183;51.010;6.898;2023-04-01T16:37:29;6.77;;;4.13;;
6300;SDS011;3183;51.010;6.898;2023-04-01T16:40:01;4.33;;;3.47;;
6300;SDS011;3183;51.010;6.898;2023-04-01T16:42:39;7.53;;;4.70;;
6300;SDS011;3183;51.010;6.898;2023-04-01T16:45:15;4.00;;;3.10;;
6300;SDS011;3183;51.010;6.898;2023-04-01T16:47:46;4.90;;;3.17;;
6300;SDS011;3183;51.010;6.898;2023-04-01T16:50:14;7.07;;;3.57;;
6300;SDS011;3183;51.010;6.898;2023-04-01T16:52:56;4.67;;;3.20;;
6300;SDS011;3183;51.010;6.898;2023-04-01T16:55:31;5.10;;;3.77;;
6300;SDS011;3183;51.010;6.898;2023-04-01T16:58:01;3.87;;;3.10;;